Time,TemperatureF,DewpointF,PressureIn,WindDirection,WindDirectionDegrees,WindSpeedMPH,WindSpeedGustMPH,Humidity,HourlyPrecipIn,Conditions,Clouds,dailyrainin,SoftwareType,DateUTC
2013-05-29 00:00:00,61.3,59.6,29.59,East,90,0.9,0.9,94,0.00,,,0.00,VWS V14.01,2013-05-29 04:00:00,
2013-05-29 00:01:00,61.3,59.6,29.59,SSE,158,0.0,0.0,94,0.00,,,0.00,VWS V14.01,2013-05-29 04:01:00,
2013-05-29 00:02:00,61.3,59.6,29.59,SE,135,0.9,0.9,94,0.00,,,0.00,VWS V14.01,2013-05-29 04:02:00,
2013-05-29 00:07:00,61.3,59.6,29.59,East,90,1.3,1.3,94,0.00,,,0.00,VWS V14.01,2013-05-29 04:07:00,
2013-05-29 00:13:00,61.3,59.6,29.59,ESE,112,0.0,0.0,94,0.00,,,0.00,VWS V14.01,2013-05-29 04:13:00,
2013-05-29 00:18:00,61.3,59.6,29.59,SE,135,0.0,0.0,94,0.00,,,0.00,VWS V14.01,2013-05-29 04:18:00,
2013-05-29 00:23:00,61.3,59.6,29.59,SSE,158,0.9,0.9,94,0.00,,,0.00,VWS V14.01,2013-05-29 04:23:00,
2013-05-29 00:28:00,61.3,59.6,29.59,SE,135,2.0,2.0,94,0.00,,,0.00,VWS V14.01,2013-05-29 04:28:00,
2013-05-29 00:33:00,61.3,59.6,29.59,SE,135,3.1,3.1,94,0.00,,,0.00,VWS V14.01,2013-05-29 04:33:00,
2013-05-29 00:38:00,61.3,59.6,29.59,ESE,112,1.3,1.3,94,0.00,,,0.00,VWS V14.01,2013-05-29 04:38:00,
2013-05-29 00:43:00,61.3,59.6,29.56,ESE,112,2.9,2.9,94,0.00,,,0.00,VWS V14.01,2013-05-29 04:43:00,
2013-05-29 00:48:00,61.3,59.6,29.56,SSE,158,1.3,1.3,94,0.00,,,0.00,VWS V14.01,2013-05-29 04:48:00,
2013-05-29 00:53:00,61.3,59.6,29.56,SE,135,2.2,2.2,94,0.00,,,0.00,VWS V14.01,2013-05-29 04:53:00,
2013-05-29 00:58:00,61.3,59.9,29.56,SE,135,2.2,2.2,95,0.00,,,0.00,VWS V14.01,2013-05-29 04:58:00,
2013-05-29 01:03:00,61.3,59.9,29.56,SE,135,1.6,1.6,95,0.00,,,0.00,VWS V14.01,2013-05-29 05:03:00,
2013-05-29 01:08:00,61.3,59.9,29.56,East,90,2.0,2.0,95,0.00,,,0.00,VWS V14.01,2013-05-29 05:08:00,
2013-05-29 01:13:00,61.3,59.9,29.56,ENE,68,0.0,0.0,95,0.00,,,0.00,VWS V14.01,2013-05-29 05:13:00,
2013-05-29 01:18:00,61.3,59.9,29.56,ESE,112,1.1,1.1,95,0.00,,,0.00,VWS V14.01,2013-05-29 05:18:00,
2013-05-29 01:23:00,61.3,59.9,29.56,SE,135,2.2,2.2,95,0.00,,,0.00,VWS V14.01,2013-05-29 05:23:00,
2013-05-29 01:28:00,61.3,59.9,29.56,SE,135,2.0,2.0,95,0.00,,,0.00,VWS V14.01,2013-05-29 05:28:00,
2013-05-29 01:33:00,61.3,59.9,29.56,SE,135,2.7,2.7,95,0.00,,,0.00,VWS V14.01,2013-05-29 05:33:00,
2013-05-29 01:38:00,61.3,59.9,29.56,SSE,158,3.4,3.4,95,0.00,,,0.00,VWS V14.01,2013-05-29 05:38:00,
2013-05-29 01:43:00,61.3,59.9,29.56,SSE,158,2.9,2.9,95,0.00,,,0.00,VWS V14.01,2013-05-29 05:43:00,
2013-05-29 01:49:00,61.3,59.9,29.56,SE,135,3.6,3.6,95,0.00,,,0.00,VWS V14.01,2013-05-29 05:49:00,
2013-05-29 01:54:00,61.3,59.9,29.56,ESE,112,2.9,2.9,95,0.00,,,0.00,VWS V14.01,2013-05-29 05:54:00,
2013-05-29 01:59:00,61.5,60.1,29.56,East,90,3.6,3.6,95,0.00,,,0.00,VWS V14.01,2013-05-29 05:59:00,
2013-05-29 02:04:00,61.5,60.1,29.56,SSE,158,2.7,2.7,95,0.00,,,0.00,VWS V14.01,2013-05-29 06:04:00,
2013-05-29 02:09:00,61.3,59.9,29.56,SSE,158,6.0,6.0,95,0.00,,,0.00,VWS V14.01,2013-05-29 06:09:00,
2013-05-29 02:14:00,61.5,60.1,29.56,SSE,158,2.7,2.7,95,0.00,,,0.00,VWS V14.01,2013-05-29 06:14:00,
2013-05-29 02:19:00,61.5,60.1,29.56,South,180,3.8,3.8,95,0.00,,,0.00,VWS V14.01,2013-05-29 06:19:00,
2013-05-29 02:24:00,61.5,60.1,29.56,SSE,158,3.1,3.1,95,0.00,,,0.00,VWS V14.01,2013-05-29 06:24:00,
2013-05-29 02:29:00,61.5,60.1,29.53,ESE,112,3.4,3.4,95,0.00,,,0.00,VWS V14.01,2013-05-29 06:29:00,
2013-05-29 02:34:00,61.7,60.5,29.53,ENE,68,0.0,0.0,96,0.00,,,0.00,VWS V14.01,2013-05-29 06:34:00,
2013-05-29 02:39:00,61.7,60.5,29.53,ENE,68,0.0,0.0,96,0.00,,,0.00,VWS V14.01,2013-05-29 06:39:00,
2013-05-29 02:44:00,61.7,60.5,29.56,SE,135,2.5,2.5,96,0.00,,,0.00,VWS V14.01,2013-05-29 06:44:00,
2013-05-29 02:49:00,61.7,60.5,29.56,East,90,1.3,1.3,96,0.00,,,0.00,VWS V14.01,2013-05-29 06:49:00,
2013-05-29 02:54:00,61.7,60.5,29.56,NW,315,4.0,4.0,96,0.00,,,0.00,VWS V14.01,2013-05-29 06:54:00,
2013-05-29 02:59:00,61.7,60.5,29.56,North,0,1.1,1.1,96,0.00,,,0.00,VWS V14.01,2013-05-29 06:59:00,
2013-05-29 03:04:00,61.7,60.5,29.56,SE,135,2.0,2.0,96,0.00,,,0.00,VWS V14.01,2013-05-29 07:04:00,
2013-05-29 03:09:00,61.5,60.4,29.56,SE,135,2.5,2.5,96,0.00,,,0.00,VWS V14.01,2013-05-29 07:09:00,
2013-05-29 03:14:00,61.5,60.4,29.56,NNE,22,2.5,2.5,96,0.00,,,0.00,VWS V14.01,2013-05-29 07:14:00,
2013-05-29 03:19:00,61.5,60.4,29.56,NNE,22,2.0,2.0,96,0.00,,,0.00,VWS V14.01,2013-05-29 07:19:00,
2013-05-29 03:24:00,61.3,60.2,29.56,NE,45,3.8,3.8,96,0.00,,,0.00,VWS V14.01,2013-05-29 07:24:00,
2013-05-29 03:29:00,61.3,60.2,29.56,North,0,4.9,4.9,96,0.00,,,0.00,VWS V14.01,2013-05-29 07:29:00,
2013-05-29 03:34:00,61.2,60.0,29.56,NNE,22,3.8,3.8,96,0.00,,,0.00,VWS V14.01,2013-05-29 07:34:00,
2013-05-29 03:40:00,61.2,60.0,29.56,NNE,22,3.4,3.4,96,0.00,,,0.00,VWS V14.01,2013-05-29 07:40:00,
2013-05-29 03:45:00,61.2,60.0,29.56,NNE,22,4.0,4.0,96,0.00,,,0.00,VWS V14.01,2013-05-29 07:45:00,
2013-05-29 03:50:00,61.2,60.0,29.56,NE,45,2.0,2.0,96,0.00,,,0.00,VWS V14.01,2013-05-29 07:50:00,
2013-05-29 03:55:00,61.2,60.0,29.56,ESE,112,2.5,2.5,96,0.00,,,0.00,VWS V14.01,2013-05-29 07:55:00,
2013-05-29 04:00:00,61.2,60.0,29.56,SSE,158,3.8,3.8,96,0.00,,,0.00,VWS V14.01,2013-05-29 08:00:00,
2013-05-29 04:05:00,61.2,60.0,29.56,SE,135,3.4,3.4,96,0.00,,,0.00,VWS V14.01,2013-05-29 08:05:00,
2013-05-29 04:10:00,61.2,60.3,29.56,SSE,158,2.5,2.5,97,0.00,,,0.00,VWS V14.01,2013-05-29 08:10:00,
2013-05-29 04:15:00,61.0,60.1,29.53,SSE,158,2.7,2.7,97,0.00,,,0.00,VWS V14.01,2013-05-29 08:15:00,
2013-05-29 04:20:00,61.0,59.8,29.53,SSW,202,2.2,2.2,96,0.00,,,0.00,VWS V14.01,2013-05-29 08:20:00,
2013-05-29 04:26:00,61.0,59.8,29.53,SSW,202,1.6,1.6,96,0.00,,,0.00,VWS V14.01,2013-05-29 08:26:00,
2013-05-29 04:31:00,61.0,59.8,29.53,SSW,202,3.4,3.4,96,0.00,,,0.00,VWS V14.01,2013-05-29 08:31:00,
2013-05-29 04:36:00,60.8,60.0,29.53,SW,225,1.1,1.1,97,0.00,,,0.00,VWS V14.01,2013-05-29 08:36:00,
2013-05-29 04:41:00,60.8,60.0,29.53,SSE,158,2.2,2.2,97,0.00,,,0.00,VWS V14.01,2013-05-29 08:41:00,
2013-05-29 04:46:00,60.8,60.0,29.56,SSW,202,2.0,2.0,97,0.00,,,0.00,VWS V14.01,2013-05-29 08:46:00,
2013-05-29 04:51:00,60.8,60.0,29.56,SSE,158,2.0,2.0,97,0.00,,,0.00,VWS V14.01,2013-05-29 08:51:00,
2013-05-29 04:56:00,60.8,60.0,29.56,SSE,158,2.0,2.0,97,0.00,,,0.00,VWS V14.01,2013-05-29 08:56:00,
2013-05-29 05:01:00,61.0,60.1,29.56,South,180,2.9,2.9,97,0.00,,,0.00,VWS V14.01,2013-05-29 09:01:00,
2013-05-29 05:06:00,61.0,60.1,29.56,SSW,202,0.0,0.0,97,0.00,,,0.00,VWS V14.01,2013-05-29 09:06:00,
2013-05-29 05:11:00,61.2,60.3,29.56,WNW,292,2.2,2.2,97,0.00,,,0.00,VWS V14.01,2013-05-29 09:11:00,
2013-05-29 05:16:00,61.2,60.6,29.56,SSW,202,2.7,2.7,98,0.00,,,0.00,VWS V14.01,2013-05-29 09:16:00,
2013-05-29 05:21:00,61.3,60.8,29.56,SSW,202,2.0,2.0,98,0.00,,,0.00,VWS V14.01,2013-05-29 09:21:00,
2013-05-29 05:26:00,61.5,61.0,29.56,WSW,248,4.7,4.7,98,0.00,,,0.00,VWS V14.01,2013-05-29 09:26:00,
2013-05-29 05:31:00,61.7,61.1,29.56,SSW,202,3.1,3.1,98,0.00,,,0.00,VWS V14.01,2013-05-29 09:31:00,
2013-05-29 05:36:00,61.7,61.1,29.56,SSW,202,1.6,1.6,98,0.00,,,0.00,VWS V14.01,2013-05-29 09:36:00,
2013-05-29 05:41:00,61.9,61.3,29.56,SSW,202,1.6,1.6,98,0.00,,,0.00,VWS V14.01,2013-05-29 09:41:00,
2013-05-29 05:46:00,61.9,61.3,29.56,WNW,292,2.2,2.2,98,0.00,,,0.00,VWS V14.01,2013-05-29 09:46:00,
2013-05-29 05:52:00,61.9,61.3,29.56,NNW,338,1.3,1.3,98,0.00,,,0.00,VWS V14.01,2013-05-29 09:52:00,
2013-05-29 05:56:00,62.1,61.5,29.56,West,270,2.2,2.2,98,0.00,,,0.00,VWS V14.01,2013-05-29 09:56:00,
2013-05-29 06:02:00,62.1,61.5,29.56,SSW,202,2.0,2.0,98,0.00,,,0.00,VWS V14.01,2013-05-29 10:02:00,
2013-05-29 06:07:00,62.1,61.5,29.56,WNW,292,0.0,0.0,98,0.00,,,0.00,VWS V14.01,2013-05-29 10:07:00,
2013-05-29 06:12:00,62.2,61.7,29.56,SSW,202,2.0,2.0,98,0.00,,,0.00,VWS V14.01,2013-05-29 10:12:00,
2013-05-29 06:17:00,62.2,61.7,29.56,South,180,0.0,0.0,98,0.00,,,0.00,VWS V14.01,2013-05-29 10:17:00,
2013-05-29 06:22:00,62.2,61.7,29.56,South,180,1.3,1.3,98,0.00,,,0.00,VWS V14.01,2013-05-29 10:22:00,
2013-05-29 06:27:00,62.2,61.7,29.56,ESE,112,0.0,0.0,98,0.00,,,0.00,VWS V14.01,2013-05-29 10:27:00,
2013-05-29 06:32:00,62.2,61.7,29.56,ESE,112,0.0,0.0,98,0.00,,,0.00,VWS V14.01,2013-05-29 10:32:00,
2013-05-29 06:37:00,62.2,61.7,29.56,SSE,158,0.0,0.0,98,0.00,,,0.00,VWS V14.01,2013-05-29 10:37:00,
2013-05-29 06:42:00,62.4,61.8,29.56,SE,135,2.5,2.5,98,0.00,,,0.00,VWS V14.01,2013-05-29 10:42:00,
2013-05-29 06:47:00,62.4,61.8,29.56,WSW,248,0.0,0.0,98,0.00,,,0.00,VWS V14.01,2013-05-29 10:47:00,
2013-05-29 06:52:00,62.4,61.8,29.56,WSW,248,2.7,2.7,98,0.00,,,0.00,VWS V14.01,2013-05-29 10:52:00,
2013-05-29 06:57:00,62.6,62.0,29.56,SSW,202,0.0,0.0,98,0.00,,,0.00,VWS V14.01,2013-05-29 10:57:00,
2013-05-29 07:02:00,62.6,62.0,29.56,SSW,202,4.0,4.0,98,0.00,,,0.00,VWS V14.01,2013-05-29 11:02:00,
2013-05-29 07:07:00,62.8,62.2,29.56,South,180,2.7,2.7,98,0.00,,,0.00,VWS V14.01,2013-05-29 11:07:00,
2013-05-29 07:13:00,63.0,62.4,29.53,SSW,202,0.0,0.0,98,0.00,,,0.00,VWS V14.01,2013-05-29 11:13:00,
2013-05-29 07:18:00,63.0,62.4,29.53,ESE,112,1.6,1.6,98,0.00,,,0.00,VWS V14.01,2013-05-29 11:18:00,
2013-05-29 07:23:00,63.1,62.6,29.53,SSE,158,0.0,0.0,98,0.00,,,0.00,VWS V14.01,2013-05-29 11:23:00,
2013-05-29 07:28:00,63.1,62.6,29.56,SSE,158,1.3,1.3,98,0.00,,,0.00,VWS V14.01,2013-05-29 11:28:00,
2013-05-29 07:33:00,63.3,62.8,29.56,SSW,202,0.9,0.9,98,0.00,,,0.00,VWS V14.01,2013-05-29 11:33:00,
2013-05-29 07:38:00,63.3,62.8,29.56,SE,135,2.2,2.2,98,0.00,,,0.00,VWS V14.01,2013-05-29 11:38:00,
2013-05-29 07:43:00,63.5,62.9,29.56,South,180,3.4,3.4,98,0.00,,,0.00,VWS V14.01,2013-05-29 11:43:00,
2013-05-29 07:48:00,63.5,62.9,29.56,SSW,202,2.0,2.0,98,0.00,,,0.00,VWS V14.01,2013-05-29 11:48:00,
2013-05-29 07:53:00,63.7,63.1,29.56,SSE,158,3.1,3.1,98,0.00,,,0.00,VWS V14.01,2013-05-29 11:53:00,
2013-05-29 07:58:00,63.9,63.3,29.53,South,180,4.0,4.0,98,0.00,,,0.00,VWS V14.01,2013-05-29 11:58:00,
2013-05-29 08:03:00,64.0,63.5,29.53,SSW,202,0.9,0.9,98,0.00,,,0.00,VWS V14.01,2013-05-29 12:03:00,
2013-05-29 08:08:00,64.2,63.7,29.53,SE,135,1.1,1.1,98,0.00,,,0.00,VWS V14.01,2013-05-29 12:08:00,
2013-05-29 08:13:00,64.6,64.0,29.56,SSW,202,0.9,0.9,98,0.00,,,0.00,VWS V14.01,2013-05-29 12:13:00,
2013-05-29 08:18:00,64.8,64.2,29.56,SE,135,3.1,3.1,98,0.00,,,0.00,VWS V14.01,2013-05-29 12:18:00,
2013-05-29 08:23:00,64.8,64.2,29.56,SSW,202,0.9,0.9,98,0.00,,,0.00,VWS V14.01,2013-05-29 12:23:00,
2013-05-29 08:28:00,64.9,64.4,29.56,SSE,158,2.5,2.5,98,0.00,,,0.00,VWS V14.01,2013-05-29 12:28:00,
2013-05-29 08:33:00,65.1,64.5,29.56,SW,225,4.0,4.0,98,0.00,,,0.00,VWS V14.01,2013-05-29 12:33:00,
2013-05-29 08:39:00,65.1,64.5,29.56,SSW,202,3.6,3.6,98,0.00,,,0.00,VWS V14.01,2013-05-29 12:39:00,
2013-05-29 08:44:00,65.3,64.7,29.56,South,180,2.9,2.9,98,0.00,,,0.00,VWS V14.01,2013-05-29 12:44:00,
2013-05-29 08:49:00,65.5,64.9,29.56,SSW,202,4.7,4.7,98,0.00,,,0.00,VWS V14.01,2013-05-29 12:49:00,
2013-05-29 08:54:00,65.8,65.3,29.56,SSW,202,6.0,6.0,98,0.00,,,0.00,VWS V14.01,2013-05-29 12:54:00,
2013-05-29 08:59:00,66.2,65.6,29.59,SSW,202,5.6,5.6,98,0.00,,,0.00,VWS V14.01,2013-05-29 12:59:00,
2013-05-29 09:04:00,66.4,65.8,29.59,SSW,202,5.4,5.4,98,0.00,,,0.00,VWS V14.01,2013-05-29 13:04:00,
2013-05-29 09:09:00,66.7,66.2,29.59,SSW,202,0.0,0.0,98,0.00,,,0.00,VWS V14.01,2013-05-29 13:09:00,
2013-05-29 09:14:00,66.7,66.2,29.56,South,180,4.3,4.3,98,0.00,,,0.00,VWS V14.01,2013-05-29 13:14:00,
2013-05-29 09:19:00,66.9,66.0,29.56,SSW,202,3.8,3.8,97,0.00,,,0.00,VWS V14.01,2013-05-29 13:19:00,
2013-05-29 09:24:00,67.1,66.2,29.56,SSW,202,4.0,4.0,97,0.00,,,0.00,VWS V14.01,2013-05-29 13:24:00,
2013-05-29 09:29:00,67.3,66.4,29.56,South,180,3.1,3.1,97,0.00,,,0.00,VWS V14.01,2013-05-29 13:29:00,
2013-05-29 09:34:00,67.5,66.3,29.56,SSE,158,5.8,5.8,96,0.00,,,0.00,VWS V14.01,2013-05-29 13:34:00,
2013-05-29 09:39:00,67.6,66.5,29.56,SSW,202,2.5,2.5,96,0.00,,,0.00,VWS V14.01,2013-05-29 13:39:00,
2013-05-29 09:44:00,67.8,66.3,29.56,WNW,292,1.1,1.1,95,0.00,,,0.00,VWS V14.01,2013-05-29 13:44:00,
2013-05-29 09:49:00,68.2,66.7,29.56,SW,225,1.6,1.6,95,0.00,,,0.00,VWS V14.01,2013-05-29 13:49:00,
2013-05-29 09:54:00,68.4,66.6,29.56,South,180,5.4,5.4,94,0.00,,,0.00,VWS V14.01,2013-05-29 13:54:00,
2013-05-29 09:59:00,68.7,66.9,29.56,South,180,3.1,3.1,94,0.00,,,0.00,VWS V14.01,2013-05-29 13:59:00,
2013-05-29 10:05:00,68.7,66.9,29.56,SSW,202,3.4,3.4,94,0.00,,,0.00,VWS V14.01,2013-05-29 14:05:00,
2013-05-29 10:10:00,69.1,67.0,29.56,SSW,202,3.8,3.8,93,0.00,,,0.00,VWS V14.01,2013-05-29 14:10:00,
2013-05-29 10:15:00,69.1,66.7,29.56,SSW,202,0.9,0.9,92,0.00,,,0.00,VWS V14.01,2013-05-29 14:15:00,
2013-05-29 10:20:00,69.3,66.8,29.56,South,180,6.0,6.0,92,0.00,,,0.00,VWS V14.01,2013-05-29 14:20:00,
2013-05-29 10:25:00,69.6,67.2,29.56,South,180,1.6,1.6,92,0.00,,,0.00,VWS V14.01,2013-05-29 14:25:00,
2013-05-29 10:30:00,70.0,67.2,29.56,SW,225,2.5,2.5,91,0.00,,,0.00,VWS V14.01,2013-05-29 14:30:00,
2013-05-29 10:35:00,70.2,67.4,29.56,SE,135,2.9,2.9,91,0.00,,,0.00,VWS V14.01,2013-05-29 14:35:00,
2013-05-29 10:40:00,70.3,67.6,29.56,SSE,158,5.4,5.4,91,0.00,,,0.00,VWS V14.01,2013-05-29 14:40:00,
2013-05-29 10:45:00,70.5,67.8,29.53,SSW,202,3.4,3.4,91,0.00,,,0.00,VWS V14.01,2013-05-29 14:45:00,
2013-05-29 10:50:00,70.9,68.1,29.53,WSW,248,4.9,4.9,91,0.00,,,0.00,VWS V14.01,2013-05-29 14:50:00,
2013-05-29 10:55:00,71.2,68.2,29.53,SSE,158,3.6,3.6,90,0.00,,,0.00,VWS V14.01,2013-05-29 14:55:00,
2013-05-29 11:00:00,71.6,67.9,29.56,WSW,248,3.8,3.8,88,0.00,,,0.00,VWS V14.01,2013-05-29 15:00:00,
2013-05-29 11:05:00,72.0,68.2,29.56,WSW,248,3.4,3.4,88,0.00,,,0.00,VWS V14.01,2013-05-29 15:05:00,
2013-05-29 11:10:00,72.3,68.2,29.56,South,180,2.2,2.2,87,0.00,,,0.00,VWS V14.01,2013-05-29 15:10:00,
2013-05-29 11:15:00,72.9,68.8,29.56,South,180,5.6,5.6,87,0.00,,,0.00,VWS V14.01,2013-05-29 15:15:00,
2013-05-29 11:20:00,73.4,68.3,29.56,SSE,158,3.8,3.8,84,0.00,,,0.00,VWS V14.01,2013-05-29 15:20:00,
2013-05-29 11:25:00,73.8,68.6,29.56,West,270,2.7,2.7,84,0.00,,,0.00,VWS V14.01,2013-05-29 15:25:00,
2013-05-29 11:31:00,74.1,68.6,29.56,South,180,2.7,2.7,83,0.00,,,0.00,VWS V14.01,2013-05-29 15:31:00,
2013-05-29 11:36:00,74.7,69.2,29.56,SSW,202,4.3,4.3,83,0.00,,,0.00,VWS V14.01,2013-05-29 15:36:00,
2013-05-29 11:41:00,75.2,68.6,29.56,SSE,158,1.3,1.3,80,0.00,,,0.00,VWS V14.01,2013-05-29 15:41:00,
2013-05-29 11:46:00,75.7,68.8,29.56,South,180,4.7,4.7,79,0.00,,,0.00,VWS V14.01,2013-05-29 15:46:00,
2013-05-29 11:51:00,76.1,69.1,29.56,South,180,3.8,3.8,79,0.00,,,0.00,VWS V14.01,2013-05-29 15:51:00,
2013-05-29 11:56:00,76.6,68.5,29.56,SW,225,3.1,3.1,76,0.00,,,0.00,VWS V14.01,2013-05-29 15:56:00,
2013-05-29 12:01:00,77.2,68.7,29.53,SW,225,2.9,2.9,75,0.00,,,0.00,VWS V14.01,2013-05-29 16:01:00,
2013-05-29 12:06:00,77.7,68.0,29.53,SSW,202,3.6,3.6,72,0.00,,,0.00,VWS V14.01,2013-05-29 16:06:00,
2013-05-29 12:11:00,78.1,67.9,29.53,WNW,292,3.6,3.6,71,0.00,,,0.00,VWS V14.01,2013-05-29 16:11:00,
2013-05-29 12:16:00,78.3,67.3,29.56,South,180,4.0,4.0,69,0.00,,,0.00,VWS V14.01,2013-05-29 16:16:00,
2013-05-29 12:21:00,78.1,66.2,29.56,SSW,202,5.6,5.6,67,0.00,,,0.00,VWS V14.01,2013-05-29 16:21:00,
2013-05-29 12:26:00,77.9,65.6,29.56,WNW,292,1.1,1.1,66,0.00,,,0.00,VWS V14.01,2013-05-29 16:26:00,
2013-05-29 12:31:00,78.1,66.2,29.56,WSW,248,4.3,4.3,67,0.00,,,0.00,VWS V14.01,2013-05-29 16:31:00,
2013-05-29 12:36:00,78.4,65.7,29.56,West,270,4.0,4.0,65,0.00,,,0.00,VWS V14.01,2013-05-29 16:36:00,
2013-05-29 12:41:00,78.6,65.9,29.56,SSW,202,4.0,4.0,65,0.00,,,0.00,VWS V14.01,2013-05-29 16:41:00,
2013-05-29 12:46:00,78.8,65.2,29.53,West,270,4.0,4.0,63,0.00,,,0.00,VWS V14.01,2013-05-29 16:46:00,
2013-05-29 12:51:00,79.3,66.1,29.53,WSW,248,5.6,5.6,64,0.00,,,0.00,VWS V14.01,2013-05-29 16:51:00,
2013-05-29 12:56:00,79.5,65.4,29.53,SSW,202,4.0,4.0,62,0.00,,,0.00,VWS V14.01,2013-05-29 16:56:00,
2013-05-29 13:01:00,79.9,64.8,29.53,WSW,248,6.5,6.5,60,0.00,,,0.00,VWS V14.01,2013-05-29 17:01:00,
2013-05-29 13:06:00,80.4,66.2,29.53,SSW,202,3.4,3.4,62,0.00,,,0.00,VWS V14.01,2013-05-29 17:06:00,
2013-05-29 13:11:00,80.4,64.8,29.53,WSW,248,4.0,4.0,59,0.00,,,0.00,VWS V14.01,2013-05-29 17:11:00,
2013-05-29 13:16:00,80.6,65.4,29.53,SSW,202,3.8,3.8,60,0.00,,,0.00,VWS V14.01,2013-05-29 17:16:00,
2013-05-29 13:21:00,81.3,64.7,29.53,WSW,248,8.1,8.1,57,0.00,,,0.00,VWS V14.01,2013-05-29 17:21:00,
2013-05-29 13:26:00,81.9,66.1,29.53,SSW,202,2.7,2.7,59,0.00,,,0.00,VWS V14.01,2013-05-29 17:26:00,
2013-05-29 13:31:00,82.0,65.3,29.53,WNW,292,3.6,3.6,57,0.00,,,0.00,VWS V14.01,2013-05-29 17:31:00,
2013-05-29 13:36:00,81.9,64.1,29.53,SSW,202,2.9,2.9,55,0.00,,,0.00,VWS V14.01,2013-05-29 17:36:00,
2013-05-29 13:41:00,82.2,66.0,29.53,SSW,202,3.8,3.8,58,0.00,,,0.00,VWS V14.01,2013-05-29 17:41:00,
2013-05-29 13:46:00,82.9,67.2,29.53,WNW,292,3.1,3.1,59,0.00,,,0.00,VWS V14.01,2013-05-29 17:46:00,
2013-05-29 13:51:00,83.1,64.2,29.53,West,270,5.4,5.4,53,0.00,,,0.00,VWS V14.01,2013-05-29 17:51:00,
2013-05-29 13:56:00,83.1,62.6,29.53,WSW,248,2.9,2.9,50,0.00,,,0.00,VWS V14.01,2013-05-29 17:56:00,
2013-05-29 14:01:00,83.3,65.5,29.53,West,270,3.8,3.8,55,0.00,,,0.00,VWS V14.01,2013-05-29 18:01:00,
2013-05-29 14:07:00,83.8,65.4,29.53,SSW,202,6.0,6.0,54,0.00,,,0.00,VWS V14.01,2013-05-29 18:07:00,
2013-05-29 14:12:00,84.6,65.0,29.50,SW,225,7.2,7.2,52,0.00,,,0.00,VWS V14.01,2013-05-29 18:12:00,
2013-05-29 14:17:00,84.9,65.3,29.50,SSW,202,5.8,5.8,52,0.00,,,0.00,VWS V14.01,2013-05-29 18:17:00,
2013-05-29 14:22:00,84.9,65.3,29.50,WSW,248,2.7,2.7,52,0.00,,,0.00,VWS V14.01,2013-05-29 18:22:00,
2013-05-29 14:27:00,85.3,64.6,29.50,SSW,202,7.8,7.8,50,0.00,,,0.00,VWS V14.01,2013-05-29 18:27:00,
2013-05-29 14:32:00,84.9,63.7,29.50,SW,225,3.8,3.8,49,0.00,,,0.00,VWS V14.01,2013-05-29 18:32:00,
2013-05-29 14:37:00,85.1,63.8,29.50,SW,225,5.4,5.4,49,0.00,,,0.00,VWS V14.01,2013-05-29 18:37:00,
2013-05-29 14:42:00,84.9,61.2,29.50,SW,225,7.6,7.6,45,0.00,,,0.00,VWS V14.01,2013-05-29 18:42:00,
2013-05-29 14:47:00,84.6,61.5,29.50,SSW,202,4.9,4.9,46,0.00,,,0.00,VWS V14.01,2013-05-29 18:47:00,
2013-05-29 14:52:00,84.6,62.1,29.50,West,270,4.3,4.3,47,0.00,,,0.00,VWS V14.01,2013-05-29 18:52:00,
2013-05-29 14:57:00,84.9,63.1,29.50,SW,225,3.1,3.1,48,0.00,,,0.00,VWS V14.01,2013-05-29 18:57:00,
2013-05-29 15:02:00,85.8,63.9,29.50,WNW,292,3.4,3.4,48,0.00,,,0.00,VWS V14.01,2013-05-29 19:02:00,
2013-05-29 15:07:00,86.4,63.8,29.50,WSW,248,6.5,6.5,47,0.00,,,0.00,VWS V14.01,2013-05-29 19:07:00,
2013-05-29 15:12:00,86.4,60.6,29.50,West,270,10.1,10.1,42,0.00,,,0.00,VWS V14.01,2013-05-29 19:12:00,
2013-05-29 15:18:00,86.4,61.9,29.50,SSW,202,6.0,6.0,44,0.00,,,0.00,VWS V14.01,2013-05-29 19:18:00,
2013-05-29 15:23:00,86.9,62.4,29.50,West,270,4.3,4.3,44,0.00,,,0.00,VWS V14.01,2013-05-29 19:23:00,
2013-05-29 15:28:00,87.3,63.3,29.50,SSW,202,6.3,6.3,45,0.00,,,0.00,VWS V14.01,2013-05-29 19:28:00,
2013-05-29 15:33:00,87.6,64.3,29.50,SSW,202,6.0,6.0,46,0.00,,,0.00,VWS V14.01,2013-05-29 19:33:00,
2013-05-29 15:38:00,87.3,60.7,29.50,WSW,248,4.7,4.7,41,0.00,,,0.00,VWS V14.01,2013-05-29 19:38:00,
2013-05-29 15:43:00,87.4,62.9,29.50,West,270,4.7,4.7,44,0.00,,,0.00,VWS V14.01,2013-05-29 19:43:00,
2013-05-29 15:48:00,87.4,60.9,29.50,SSW,202,4.0,4.0,41,0.00,,,0.00,VWS V14.01,2013-05-29 19:48:00,
2013-05-29 15:53:00,87.3,59.3,29.50,West,270,6.5,6.5,39,0.00,,,0.00,VWS V14.01,2013-05-29 19:53:00,
2013-05-29 15:58:00,87.6,61.0,29.47,SSE,158,3.1,3.1,41,0.00,,,0.00,VWS V14.01,2013-05-29 19:58:00,
2013-05-29 16:03:00,88.0,62.0,29.47,WSW,248,2.9,2.9,42,0.00,,,0.00,VWS V14.01,2013-05-29 20:03:00,
2013-05-29 16:08:00,88.2,60.8,29.47,West,270,3.8,3.8,40,0.00,,,0.00,VWS V14.01,2013-05-29 20:08:00,
2013-05-29 16:13:00,88.3,61.7,29.47,SW,225,4.0,4.0,41,0.00,,,0.00,VWS V14.01,2013-05-29 20:13:00,
2013-05-29 16:18:00,88.0,60.7,29.47,West,270,5.8,5.8,40,0.00,,,0.00,VWS V14.01,2013-05-29 20:18:00,
2013-05-29 16:23:00,87.4,60.9,29.47,West,270,3.1,3.1,41,0.00,,,0.00,VWS V14.01,2013-05-29 20:23:00,
2013-05-29 16:28:00,88.2,61.5,29.50,WSW,248,3.6,3.6,41,0.00,,,0.00,VWS V14.01,2013-05-29 20:28:00,
2013-05-29 16:34:00,87.8,59.8,29.50,WSW,248,3.6,3.6,39,0.00,,,0.00,VWS V14.01,2013-05-29 20:34:00,
2013-05-29 16:38:00,87.4,60.2,29.50,WSW,248,4.3,4.3,40,0.00,,,0.00,VWS V14.01,2013-05-29 20:38:00,
2013-05-29 16:44:00,86.9,59.0,29.50,WSW,248,3.8,3.8,39,0.00,,,0.00,VWS V14.01,2013-05-29 20:44:00,
2013-05-29 16:49:00,87.3,60.0,29.50,WNW,292,3.6,3.6,40,0.00,,,0.00,VWS V14.01,2013-05-29 20:49:00,
2013-05-29 16:54:00,89.1,60.9,29.50,WNW,292,10.5,10.5,39,0.00,,,0.00,VWS V14.01,2013-05-29 20:54:00,
2013-05-29 16:59:00,89.4,59.0,29.50,West,270,11.0,11.0,36,0.00,,,0.00,VWS V14.01,2013-05-29 20:59:00,
2013-05-29 17:04:00,89.8,60.1,29.50,WNW,292,3.4,3.4,37,0.00,,,0.00,VWS V14.01,2013-05-29 21:04:00,
2013-05-29 17:09:00,90.3,60.5,29.50,WSW,248,7.8,7.8,37,0.00,,,0.00,VWS V14.01,2013-05-29 21:09:00,
2013-05-29 17:14:00,90.3,59.0,29.47,WSW,248,9.6,9.6,35,0.00,,,0.00,VWS V14.01,2013-05-29 21:14:00,
2013-05-29 17:19:00,90.5,59.1,29.47,South,180,6.3,6.3,35,0.00,,,0.00,VWS V14.01,2013-05-29 21:19:00,
2013-05-29 17:24:00,90.1,57.2,29.47,SSW,202,4.0,4.0,33,0.00,,,0.00,VWS V14.01,2013-05-29 21:24:00,
2013-05-29 17:29:00,89.6,58.3,29.50,WSW,248,6.5,6.5,35,0.00,,,0.00,VWS V14.01,2013-05-29 21:29:00,
2013-05-29 17:34:00,89.4,58.2,29.50,WSW,248,5.4,5.4,35,0.00,,,0.00,VWS V14.01,2013-05-29 21:34:00,
2013-05-29 17:39:00,89.2,58.0,29.50,West,270,8.7,8.7,35,0.00,,,0.00,VWS V14.01,2013-05-29 21:39:00,
2013-05-29 17:44:00,88.9,56.9,29.50,West,270,4.3,4.3,34,0.00,,,0.00,VWS V14.01,2013-05-29 21:44:00,
2013-05-29 17:49:00,89.1,58.7,29.50,WSW,248,7.6,7.6,36,0.00,,,0.00,VWS V14.01,2013-05-29 21:49:00,
2013-05-29 17:54:00,88.9,57.7,29.50,SSW,202,4.3,4.3,35,0.00,,,0.00,VWS V14.01,2013-05-29 21:54:00,
2013-05-29 17:59:00,88.5,57.4,29.47,WNW,292,2.9,2.9,35,0.00,,,0.00,VWS V14.01,2013-05-29 21:59:00,
2013-05-29 18:04:00,88.3,56.4,29.47,WSW,248,3.6,3.6,34,0.00,,,0.00,VWS V14.01,2013-05-29 22:04:00,
2013-05-29 18:09:00,88.0,56.1,29.47,South,180,3.1,3.1,34,0.00,,,0.00,VWS V14.01,2013-05-29 22:09:00,
2013-05-29 18:14:00,87.8,56.8,29.53,South,180,4.3,4.3,35,0.00,,,0.00,VWS V14.01,2013-05-29 22:14:00,
2013-05-29 18:19:00,87.6,55.0,29.53,WSW,248,12.3,12.3,33,0.00,,,0.00,VWS V14.01,2013-05-29 22:19:00,
2013-05-29 18:24:00,87.3,55.5,29.53,West,270,2.5,2.5,34,0.00,,,0.00,VWS V14.01,2013-05-29 22:24:00,
2013-05-29 18:29:00,87.1,54.5,29.50,SSW,202,4.0,4.0,33,0.00,,,0.00,VWS V14.01,2013-05-29 22:29:00,
2013-05-29 18:34:00,87.1,55.3,29.50,WSW,248,5.6,5.6,34,0.00,,,0.00,VWS V14.01,2013-05-29 22:34:00,
2013-05-29 18:39:00,86.7,56.6,29.50,West,270,5.8,5.8,36,0.00,,,0.00,VWS V14.01,2013-05-29 22:39:00,
2013-05-29 18:44:00,86.4,55.5,29.50,WSW,248,5.4,5.4,35,0.00,,,0.00,VWS V14.01,2013-05-29 22:44:00,
2013-05-29 18:49:00,86.4,55.5,29.50,SW,225,2.0,2.0,35,0.00,,,0.00,VWS V14.01,2013-05-29 22:49:00,
2013-05-29 18:54:00,86.2,56.1,29.50,SSW,202,5.8,5.8,36,0.00,,,0.00,VWS V14.01,2013-05-29 22:54:00,
2013-05-29 18:59:00,86.0,56.0,29.50,SSW,202,6.5,6.5,36,0.00,,,0.00,VWS V14.01,2013-05-29 22:59:00,
2013-05-29 19:04:00,85.8,57.3,29.50,SSW,202,7.8,7.8,38,0.00,,,0.00,VWS V14.01,2013-05-29 23:04:00,
2013-05-29 19:09:00,85.6,57.9,29.50,SE,135,3.8,3.8,39,0.00,,,0.00,VWS V14.01,2013-05-29 23:09:00,
2013-05-29 19:14:00,85.6,57.1,29.47,WSW,248,1.1,1.1,38,0.00,,,0.00,VWS V14.01,2013-05-29 23:14:00,
2013-05-29 19:19:00,85.6,57.9,29.47,SSW,202,2.9,2.9,39,0.00,,,0.00,VWS V14.01,2013-05-29 23:19:00,
2013-05-29 19:24:00,85.5,56.2,29.47,SSW,202,2.7,2.7,37,0.00,,,0.00,VWS V14.01,2013-05-29 23:24:00,
2013-05-29 19:30:00,85.5,55.5,29.50,SSE,158,6.3,6.3,36,0.00,,,0.00,VWS V14.01,2013-05-29 23:30:00,
2013-05-29 19:35:00,85.3,56.1,29.50,WSW,248,3.1,3.1,37,0.00,,,0.00,VWS V14.01,2013-05-29 23:35:00,
2013-05-29 19:40:00,85.1,56.7,29.50,South,180,2.0,2.0,38,0.00,,,0.00,VWS V14.01,2013-05-29 23:40:00,
2013-05-29 19:45:00,84.9,55.8,29.50,South,180,4.7,4.7,37,0.00,,,0.00,VWS V14.01,2013-05-29 23:45:00,
2013-05-29 19:50:00,84.6,54.7,29.50,WNW,292,2.9,2.9,36,0.00,,,0.00,VWS V14.01,2013-05-29 23:50:00,
2013-05-29 19:55:00,84.0,55.0,29.50,SSW,202,3.4,3.4,37,0.00,,,0.00,VWS V14.01,2013-05-29 23:55:00,
2013-05-29 20:00:00,83.3,55.1,29.50,SSE,158,3.4,3.4,38,0.00,,,0.00,VWS V14.01,2013-05-30 00:00:00,
2013-05-29 20:05:00,82.6,55.1,29.50,South,180,4.3,4.3,39,0.00,,,0.00,VWS V14.01,2013-05-30 00:05:00,
2013-05-29 20:10:00,82.0,54.7,29.50,SSW,202,4.0,4.0,39,0.00,,,0.00,VWS V14.01,2013-05-30 00:10:00,
2013-05-29 20:15:00,81.5,54.9,29.50,East,90,0.0,0.0,40,0.00,,,0.00,VWS V14.01,2013-05-30 00:15:00,
2013-05-29 20:20:00,80.8,54.2,29.50,SSE,158,1.1,1.1,40,0.00,,,0.00,VWS V14.01,2013-05-30 00:20:00,
2013-05-29 20:25:00,80.2,55.1,29.50,WSW,248,2.9,2.9,42,0.00,,,0.00,VWS V14.01,2013-05-30 00:25:00,
2013-05-29 20:30:00,79.9,54.8,29.50,WSW,248,0.0,0.0,42,0.00,,,0.00,VWS V14.01,2013-05-30 00:30:00,
2013-05-29 20:35:00,79.3,54.9,29.50,SW,225,2.0,2.0,43,0.00,,,0.00,VWS V14.01,2013-05-30 00:35:00,
2013-05-29 20:41:00,78.8,54.4,29.50,West,270,2.2,2.2,43,0.00,,,0.00,VWS V14.01,2013-05-30 00:41:00,
2013-05-29 20:46:00,78.4,54.7,29.50,NW,315,1.3,1.3,44,0.00,,,0.00,VWS V14.01,2013-05-30 00:46:00,
2013-05-29 20:51:00,77.9,54.3,29.50,NW,315,2.7,2.7,44,0.00,,,0.00,VWS V14.01,2013-05-30 00:51:00,
2013-05-29 20:56:00,77.7,54.1,29.50,NW,315,2.5,2.5,44,0.00,,,0.00,VWS V14.01,2013-05-30 00:56:00,
2013-05-29 21:01:00,77.7,54.1,29.50,WSW,248,3.1,3.1,44,0.00,,,0.00,VWS V14.01,2013-05-30 01:01:00,
2013-05-29 21:06:00,77.7,54.1,29.50,WSW,248,4.9,4.9,44,0.00,,,0.00,VWS V14.01,2013-05-30 01:06:00,
2013-05-29 21:11:00,77.7,54.7,29.53,WSW,248,3.4,3.4,45,0.00,,,0.00,VWS V14.01,2013-05-30 01:11:00,
2013-05-29 21:16:00,77.5,54.5,29.53,WSW,248,4.0,4.0,45,0.00,,,0.00,VWS V14.01,2013-05-30 01:16:00,
2013-05-29 21:21:00,77.2,54.2,29.53,WNW,292,2.5,2.5,45,0.00,,,0.00,VWS V14.01,2013-05-30 01:21:00,
2013-05-29 21:26:00,76.8,54.5,29.50,WSW,248,2.0,2.0,46,0.00,,,0.00,VWS V14.01,2013-05-30 01:26:00,
2013-05-29 21:31:00,76.5,55.3,29.50,West,270,1.3,1.3,48,0.00,,,0.00,VWS V14.01,2013-05-30 01:31:00,
2013-05-29 21:37:00,76.1,55.6,29.50,West,270,0.9,0.9,49,0.00,,,0.00,VWS V14.01,2013-05-30 01:37:00,
2013-05-29 21:42:00,75.7,54.7,29.50,West,270,0.0,0.0,48,0.00,,,0.00,VWS V14.01,2013-05-30 01:42:00,
2013-05-29 21:47:00,75.6,55.1,29.50,WNW,292,2.0,2.0,49,0.00,,,0.00,VWS V14.01,2013-05-30 01:47:00,
2013-05-29 21:52:00,75.2,55.3,29.50,WNW,292,0.0,0.0,50,0.00,,,0.00,VWS V14.01,2013-05-30 01:52:00,
2013-05-29 21:57:00,75.0,55.7,29.50,WNW,292,0.9,0.9,51,0.00,,,0.00,VWS V14.01,2013-05-30 01:57:00,
2013-05-29 22:02:00,74.7,55.9,29.50,SSW,202,0.9,0.9,52,0.00,,,0.00,VWS V14.01,2013-05-30 02:02:00,
2013-05-29 22:07:00,74.3,56.1,29.50,SSW,202,0.0,0.0,53,0.00,,,0.00,VWS V14.01,2013-05-30 02:07:00,
2013-05-29 22:13:00,73.9,56.8,29.50,SSW,202,1.3,1.3,55,0.00,,,0.00,VWS V14.01,2013-05-30 02:13:00,
2013-05-29 22:18:00,73.4,56.8,29.50,SSW,202,1.6,1.6,56,0.00,,,0.00,VWS V14.01,2013-05-30 02:18:00,
2013-05-29 22:23:00,73.2,56.6,29.50,SSW,202,2.0,2.0,56,0.00,,,0.00,VWS V14.01,2013-05-30 02:23:00,
2013-05-29 22:28:00,73.0,56.4,29.53,SSW,202,1.3,1.3,56,0.00,,,0.00,VWS V14.01,2013-05-30 02:28:00,
2013-05-29 22:33:00,72.9,56.8,29.53,SSW,202,0.0,0.0,57,0.00,,,0.00,VWS V14.01,2013-05-30 02:33:00,
2013-05-29 22:38:00,72.7,57.1,29.53,WSW,248,0.0,0.0,58,0.00,,,0.00,VWS V14.01,2013-05-30 02:38:00,
2013-05-29 22:43:00,72.5,56.9,29.53,West,270,1.6,1.6,58,0.00,,,0.00,VWS V14.01,2013-05-30 02:43:00,
2013-05-29 22:48:00,72.5,56.4,29.53,West,270,3.1,3.1,57,0.00,,,0.00,VWS V14.01,2013-05-30 02:48:00,
2013-05-29 22:53:00,72.9,56.8,29.53,WSW,248,2.7,2.7,57,0.00,,,0.00,VWS V14.01,2013-05-30 02:53:00,
2013-05-29 22:58:00,73.0,56.4,29.53,West,270,2.0,2.0,56,0.00,,,0.00,VWS V14.01,2013-05-30 02:58:00,
2013-05-29 23:03:00,73.0,56.4,29.53,WSW,248,0.0,0.0,56,0.00,,,0.00,VWS V14.01,2013-05-30 03:03:00,
2013-05-29 23:08:00,72.9,56.8,29.53,South,180,2.0,2.0,57,0.00,,,0.00,VWS V14.01,2013-05-30 03:08:00,
2013-05-29 23:13:00,72.5,56.9,29.53,SW,225,0.9,0.9,58,0.00,,,0.00,VWS V14.01,2013-05-30 03:13:00,
2013-05-29 23:18:00,72.1,57.0,29.53,WSW,248,0.0,0.0,59,0.00,,,0.00,VWS V14.01,2013-05-30 03:18:00,
2013-05-29 23:23:00,72.0,56.9,29.53,SSW,202,1.3,1.3,59,0.00,,,0.00,VWS V14.01,2013-05-30 03:23:00,
2013-05-29 23:28:00,71.6,57.0,29.56,SSW,202,0.0,0.0,60,0.00,,,0.00,VWS V14.01,2013-05-30 03:28:00,
2013-05-29 23:33:00,71.2,57.1,29.56,SSW,202,0.0,0.0,61,0.00,,,0.00,VWS V14.01,2013-05-30 03:33:00,
2013-05-29 23:38:00,71.1,57.4,29.56,SSW,202,2.0,2.0,62,0.00,,,0.00,VWS V14.01,2013-05-30 03:38:00,
2013-05-29 23:43:00,70.9,57.2,29.56,SW,225,0.0,0.0,62,0.00,,,0.00,VWS V14.01,2013-05-30 03:43:00,
2013-05-29 23:48:00,70.7,57.5,29.56,WNW,292,0.0,0.0,63,0.00,,,0.00,VWS V14.01,2013-05-30 03:48:00,
2013-05-29 23:53:00,70.5,57.3,29.56,West,270,0.0,0.0,63,0.00,,,0.00,VWS V14.01,2013-05-30 03:53:00,
2013-05-29 23:58:00,70.2,57.4,29.56,North,0,1.1,1.1,64,0.00,,,0.00,VWS V14.01,2013-05-30 03:58:00,